createdAt,value
2022-10-20T00:00:24.688Z,18.25
2022-10-20T00:02:51.851Z,22.30
2022-10-20T00:05:22.056Z,17.42
2022-10-20T00:07:49.164Z,22.63
2022-10-20T00:10:17.353Z,20.33
2022-10-20T00:12:44.428Z,22.35
2022-10-20T00:15:11.532Z,19.60
2022-10-20T00:17:38.594Z,21.55
2022-10-20T00:20:06.008Z,22.95
2022-10-20T00:22:33.283Z,22.15
2022-10-20T00:25:00.439Z,24.40
2022-10-20T00:27:27.523Z,20.60
2022-10-20T00:29:54.607Z,19.75
2022-10-20T00:32:21.694Z,19.83
2022-10-20T00:34:48.762Z,21.92
2022-10-20T00:37:15.842Z,21.83
2022-10-20T00:39:42.913Z,22.27
2022-10-20T00:42:12.510Z,20.05
2022-10-20T00:44:50.675Z,22.13
2022-10-20T00:47:19.814Z,22.05
2022-10-20T00:49:47.627Z,21.95
2022-10-20T00:52:16.634Z,25.42
2022-10-20T00:54:43.865Z,24.27
2022-10-20T00:57:11.163Z,18.40
2022-10-20T00:59:38.893Z,22.10
2022-10-20T01:02:07.126Z,24.35
2022-10-20T01:04:35.214Z,22.98
2022-10-20T01:07:02.371Z,20.33
2022-10-20T01:09:29.510Z,25.80
2022-10-20T01:12:10.763Z,22.63
2022-10-20T01:14:51.527Z,23.33
2022-10-20T01:17:18.656Z,21.00
2022-10-20T01:20:04.038Z,26.17
2022-10-20T01:22:48.929Z,27.58
2022-10-20T01:25:26.916Z,23.35
2022-10-20T01:27:59.014Z,26.55
2022-10-20T01:30:26.140Z,24.45
2022-10-20T01:32:53.222Z,21.90
2022-10-20T01:35:35.810Z,21.55
2022-10-20T01:38:14.931Z,20.92
2022-10-20T01:40:45.110Z,17.20
2022-10-20T01:43:13.666Z,19.48
2022-10-20T01:45:42.999Z,22.75
2022-10-20T01:48:11.123Z,20.73
2022-10-20T01:50:39.191Z,20.95
2022-10-20T01:53:06.699Z,19.25
2022-10-20T01:55:34.282Z,21.83
2022-10-20T01:58:16.467Z,20.83
2022-10-20T02:00:45.170Z,20.13
2022-10-20T02:03:22.300Z,16.48
2022-10-20T02:06:10.127Z,18.63
2022-10-20T02:08:49.106Z,21.10
2022-10-20T02:11:25.902Z,20.95
2022-10-20T02:13:53.556Z,21.95
2022-10-20T02:16:29.894Z,21.65
2022-10-20T02:18:57.174Z,23.20
2022-10-20T02:21:24.465Z,20.88
2022-10-20T02:23:51.793Z,25.85
2022-10-20T02:26:20.215Z,20.55
2022-10-20T02:28:50.865Z,21.48
2022-10-20T02:31:18.751Z,20.90
2022-10-20T02:33:46.758Z,21.17
2022-10-20T02:36:17.352Z,22.05
2022-10-20T02:38:44.458Z,20.27
2022-10-20T02:41:11.805Z,22.23
2022-10-20T02:43:39.127Z,19.02
2022-10-20T02:46:06.389Z,27.55
2022-10-20T02:48:33.476Z,24.08
2022-10-20T02:51:00.889Z,23.15
2022-10-20T02:53:27.955Z,25.00
2022-10-20T02:55:55.023Z,25.65
2022-10-20T02:58:22.113Z,24.48
2022-10-20T03:00:50.612Z,26.58
2022-10-20T03:03:18.450Z,28.90
2022-10-20T03:05:46.919Z,24.05
2022-10-20T03:08:14.443Z,28.25
2022-10-20T03:10:42.677Z,28.00
2022-10-20T03:13:10.747Z,26.27
2022-10-20T03:15:38.440Z,30.48
2022-10-20T03:18:05.510Z,29.05
2022-10-20T03:20:32.903Z,29.95
2022-10-20T03:23:00.029Z,32.38
2022-10-20T03:25:27.126Z,31.80
2022-10-20T03:27:54.185Z,27.17
2022-10-20T03:30:21.330Z,31.17
2022-10-20T03:32:48.510Z,33.53
2022-10-20T03:35:15.661Z,35.60
2022-10-20T03:37:42.718Z,36.00
2022-10-20T03:40:10.060Z,34.67
2022-10-20T03:42:37.570Z,35.33
2022-10-20T03:45:05.386Z,40.95
2022-10-20T03:47:32.484Z,36.63
2022-10-20T03:49:59.599Z,40.63
2022-10-20T03:52:26.694Z,38.50
2022-10-20T03:54:53.737Z,41.95
2022-10-20T03:57:21.178Z,41.28
2022-10-20T03:59:48.281Z,40.22
2022-10-20T04:02:35.792Z,38.42
2022-10-20T04:05:03.087Z,37.78
2022-10-20T04:07:30.188Z,41.05
2022-10-20T04:09:57.649Z,41.10
2022-10-20T04:12:25.275Z,45.97
2022-10-20T04:14:52.439Z,48.75
2022-10-20T04:17:19.530Z,45.42
2022-10-20T04:19:46.683Z,40.67
2022-10-20T04:22:13.981Z,45.28
2022-10-20T04:24:41.115Z,46.88
2022-10-20T04:27:08.175Z,48.80
2022-10-20T04:29:35.339Z,45.97
2022-10-20T04:32:02.470Z,47.55
2022-10-20T04:34:29.538Z,47.83
2022-10-20T04:36:56.630Z,47.92
2022-10-20T04:39:25.171Z,55.55
2022-10-20T04:41:52.529Z,53.55
2022-10-20T04:44:19.667Z,49.08
2022-10-20T04:46:46.746Z,45.60
2022-10-20T04:49:13.891Z,45.58
2022-10-20T04:51:41.071Z,50.00
2022-10-20T04:54:08.132Z,43.67
2022-10-20T04:56:35.595Z,46.38
2022-10-20T04:59:03.137Z,48.60
2022-10-20T05:01:30.858Z,47.72
2022-10-20T05:03:58.342Z,44.55
2022-10-20T05:06:26.886Z,42.15
2022-10-20T05:08:55.568Z,43.85
2022-10-20T05:11:23.162Z,40.65
2022-10-20T05:13:50.258Z,44.88
2022-10-20T05:16:17.595Z,44.08
2022-10-20T05:18:45.103Z,36.13
2022-10-20T05:21:14.131Z,36.88
2022-10-20T05:23:41.989Z,33.92
2022-10-20T05:26:10.891Z,36.55
2022-10-20T05:28:38.047Z,34.78
2022-10-20T05:31:56.484Z,32.25
2022-10-20T05:34:05.381Z,35.15
2022-10-20T05:36:32.611Z,33.00
2022-10-20T05:38:59.691Z,34.60
2022-10-20T05:41:28.023Z,34.22
2022-10-20T05:43:59.770Z,37.70
2022-10-20T05:46:27.919Z,33.40
2022-10-20T05:48:56.392Z,34.67
2022-10-20T05:51:24.965Z,34.58
2022-10-20T05:53:52.755Z,35.33
2022-10-20T05:56:20.996Z,30.65
2022-10-20T05:58:48.559Z,30.15
2022-10-20T06:01:18.646Z,30.60
2022-10-20T06:03:49.525Z,32.53
2022-10-20T06:06:17.200Z,28.38
2022-10-20T06:08:44.426Z,31.27
2022-10-20T06:11:12.258Z,25.13
2022-10-20T06:13:39.307Z,29.00
2022-10-20T06:16:07.389Z,26.90
2022-10-20T06:18:34.923Z,26.90
2022-10-20T06:21:03.519Z,27.85
2022-10-20T06:23:30.618Z,28.63
2022-10-20T06:26:02.252Z,25.35
2022-10-20T06:28:33.297Z,26.33
2022-10-20T06:31:00.666Z,23.15
2022-10-20T06:33:30.820Z,23.35
2022-10-20T06:36:01.383Z,24.65
2022-10-20T06:38:28.874Z,23.35
2022-10-20T06:40:56.372Z,22.52
2022-10-20T06:43:23.470Z,24.80
2022-10-20T06:45:57.283Z,24.27
2022-10-20T06:48:24.506Z,20.00
2022-10-20T06:50:51.635Z,22.73
2022-10-20T06:53:18.756Z,19.25
2022-10-20T06:55:45.851Z,18.70
2022-10-20T06:58:12.938Z,18.70
2022-10-20T07:00:40.042Z,19.02
2022-10-20T07:03:07.106Z,16.85
2022-10-20T07:05:36.032Z,14.68
2022-10-20T07:08:03.109Z,14.52
2022-10-20T07:10:30.181Z,14.95
2022-10-20T07:12:57.233Z,15.52
2022-10-20T07:15:24.430Z,15.98
2022-10-20T07:17:51.555Z,13.93
2022-10-20T07:20:18.975Z,13.95
2022-10-20T07:22:46.048Z,14.50
2022-10-20T07:25:13.083Z,14.35
2022-10-20T07:27:40.497Z,15.65
2022-10-20T07:30:07.834Z,11.05
2022-10-20T07:32:35.379Z,11.70
2022-10-20T07:35:02.658Z,14.57
2022-10-20T07:37:29.746Z,13.48
2022-10-20T07:39:56.790Z,14.23
2022-10-20T07:42:23.896Z,12.27
2022-10-20T07:44:50.958Z,10.95
2022-10-20T07:47:18.062Z,10.60
2022-10-20T07:49:45.450Z,10.52
2022-10-20T07:52:12.924Z,13.85
2022-10-20T07:54:40.055Z,11.27
2022-10-20T07:57:07.142Z,11.65
2022-10-20T07:59:34.628Z,10.85
2022-10-20T08:02:02.283Z,12.93
2022-10-20T08:04:31.362Z,12.68
2022-10-20T08:06:59.062Z,13.25
2022-10-20T08:09:26.167Z,12.07
2022-10-20T08:11:55.570Z,9.30
2022-10-20T08:14:23.171Z,10.48
2022-10-20T08:16:50.311Z,12.00
2022-10-20T08:19:18.762Z,10.60
2022-10-20T08:21:45.837Z,11.05
2022-10-20T08:24:12.885Z,12.60
2022-10-20T08:26:39.969Z,13.05
2022-10-20T08:29:07.030Z,10.43
2022-10-20T08:31:34.113Z,11.48
2022-10-20T08:34:01.303Z,8.82
2022-10-20T08:36:28.475Z,9.10
2022-10-20T08:38:56.438Z,9.55
2022-10-20T08:41:25.703Z,13.25
2022-10-20T08:43:54.648Z,9.05
2022-10-20T08:46:23.684Z,10.32
2022-10-20T08:48:51.069Z,10.38
2022-10-20T08:51:37.139Z,12.05
2022-10-20T08:54:05.330Z,8.68
2022-10-20T08:56:34.729Z,9.80
2022-10-20T08:59:03.373Z,10.80
2022-10-20T09:01:33.911Z,14.45
2022-10-20T09:04:04.719Z,11.80
2022-10-20T09:06:31.874Z,13.02
2022-10-20T09:08:59.190Z,12.07
2022-10-20T09:11:29.171Z,10.45
2022-10-20T09:13:56.282Z,11.32
2022-10-20T09:16:40.569Z,10.18
2022-10-20T09:19:16.397Z,10.75
2022-10-20T09:21:43.898Z,11.15
2022-10-20T09:24:11.126Z,10.13
2022-10-20T09:27:00.131Z,10.68
2022-10-20T09:29:38.262Z,8.20
2022-10-20T09:32:44.427Z,7.63
2022-10-20T09:35:22.783Z,11.00
2022-10-20T09:38:02.154Z,8.52
2022-10-20T09:40:29.744Z,8.55
2022-10-20T09:43:08.432Z,8.20
2022-10-20T09:45:35.743Z,9.43
2022-10-20T09:48:23.175Z,7.85
2022-10-20T09:50:52.298Z,7.13
2022-10-20T09:53:21.429Z,10.82
2022-10-20T09:55:49.835Z,7.20
2022-10-20T09:58:22.775Z,10.13
2022-10-20T10:00:56.486Z,8.13
2022-10-20T10:03:24.046Z,8.35
2022-10-20T10:05:52.308Z,8.98
2022-10-20T10:08:20.427Z,11.45
2022-10-20T10:10:59.457Z,8.95
2022-10-20T10:13:28.303Z,9.45
2022-10-20T10:16:21.715Z,8.57
2022-10-20T10:18:56.276Z,7.93
2022-10-20T10:21:23.476Z,9.82
2022-10-20T10:24:13.338Z,8.25
2022-10-20T10:26:45.523Z,8.75
2022-10-20T10:29:38.993Z,7.80
2022-10-20T10:32:16.903Z,9.13
2022-10-20T10:34:46.871Z,6.85
2022-10-20T10:37:15.778Z,11.95
2022-10-20T10:39:42.947Z,6.75
2022-10-20T10:42:20.589Z,10.18
2022-10-20T10:44:47.640Z,8.00
2022-10-20T10:47:35.346Z,10.07
2022-10-20T10:50:23.210Z,7.72
2022-10-20T10:53:10.754Z,7.80
2022-10-20T10:55:49.102Z,8.55
2022-10-20T10:58:16.669Z,8.13
2022-10-20T11:01:02.283Z,11.43
2022-10-20T11:03:40.706Z,8.10
2022-10-20T11:06:18.607Z,10.07
2022-10-20T11:09:03.926Z,9.07
2022-10-20T11:11:36.968Z,21.00
2022-10-20T11:14:11.827Z,11.38
2022-10-20T11:16:57.897Z,12.43
2022-10-20T11:19:34.101Z,6.00
2022-10-20T11:22:09.442Z,6.40
2022-10-20T11:24:57.560Z,9.23
2022-10-20T11:27:30.123Z,10.02
2022-10-20T11:30:04.949Z,7.75
2022-10-20T11:32:32.046Z,6.63
2022-10-20T11:35:01.974Z,8.95
2022-10-20T11:37:30.972Z,10.05
2022-10-20T11:40:14.970Z,6.65
2022-10-20T11:42:53.024Z,8.05
2022-10-20T11:45:36.353Z,8.57
2022-10-20T11:48:13.516Z,12.52
2022-10-20T11:50:41.276Z,9.80
2022-10-20T11:53:28.044Z,11.57
2022-10-20T11:55:55.130Z,9.23
2022-10-20T11:58:22.166Z,9.73
2022-10-20T12:01:01.575Z,8.65
2022-10-20T12:03:28.634Z,13.18
2022-10-20T12:06:11.060Z,9.35
2022-10-20T12:08:43.947Z,10.10
2022-10-20T12:11:11.074Z,8.82
2022-10-20T12:13:56.980Z,8.27
2022-10-20T12:16:44.302Z,8.65
2022-10-20T12:19:18.632Z,10.68
2022-10-20T12:21:55.707Z,8.85
2022-10-20T12:24:33.947Z,10.15
2022-10-20T12:27:10.347Z,8.25
2022-10-20T12:29:37.416Z,9.23
2022-10-20T12:32:25.679Z,8.80
2022-10-20T12:34:54.118Z,10.95
2022-10-20T12:37:34.961Z,10.70
2022-10-20T12:40:08.627Z,8.38
2022-10-20T12:42:40.134Z,10.07
2022-10-20T12:45:08.566Z,12.90
2022-10-20T12:47:37.537Z,8.77
2022-10-20T12:50:08.370Z,10.95
2022-10-20T12:52:37.040Z,10.27
2022-10-20T12:55:09.274Z,9.50
2022-10-20T12:57:41.594Z,11.57
2022-10-20T13:00:24.066Z,13.05
2022-10-20T13:02:51.254Z,13.25
2022-10-20T13:05:18.305Z,8.40
2022-10-20T13:07:48.491Z,8.98
2022-10-20T13:10:28.940Z,10.27
2022-10-20T13:13:19.351Z,10.40
2022-10-20T13:16:06.627Z,10.73
2022-10-20T13:18:36.861Z,12.93
2022-10-20T13:21:22.855Z,13.20
2022-10-20T13:24:10.234Z,10.38
2022-10-20T13:26:43.230Z,8.55
2022-10-20T13:29:16.985Z,9.48
2022-10-20T13:31:44.064Z,8.43
2022-10-20T13:34:13.967Z,10.43
2022-10-20T13:36:56.374Z,10.77
2022-10-20T13:39:41.883Z,15.10
2022-10-20T13:42:27.679Z,13.45
2022-10-20T13:45:01.459Z,15.70
2022-10-20T13:47:31.638Z,12.15
2022-10-20T13:50:10.933Z,11.70
2022-10-20T13:52:43.266Z,9.68
2022-10-20T13:55:16.651Z,11.18
2022-10-20T13:57:55.304Z,9.93
2022-10-20T14:00:24.740Z,11.30
2022-10-20T14:02:53.657Z,14.30
2022-10-20T14:05:22.093Z,13.25
2022-10-20T14:07:52.273Z,10.23
2022-10-20T14:10:24.058Z,12.18
2022-10-20T14:12:51.246Z,11.25
2022-10-20T14:15:22.509Z,12.07
2022-10-20T14:17:56.243Z,12.48
2022-10-20T14:20:23.626Z,13.52
2022-10-20T14:22:53.463Z,13.40
2022-10-20T14:25:21.189Z,9.32
2022-10-20T14:27:51.280Z,14.60
2022-10-20T14:30:18.906Z,10.75
2022-10-20T14:32:47.110Z,12.70
2022-10-20T14:35:14.647Z,14.32
2022-10-20T14:37:45.362Z,12.55
2022-10-20T14:40:20.268Z,10.55
2022-10-20T14:42:47.667Z,11.80
2022-10-20T14:45:19.693Z,9.43
2022-10-20T14:47:47.025Z,18.23
2022-10-20T14:50:21.696Z,14.60
2022-10-20T14:52:53.023Z,14.10
2022-10-20T14:55:35.101Z,15.57
2022-10-20T14:58:19.746Z,14.40
2022-10-20T15:01:21.418Z,12.65
2022-10-20T15:04:03.567Z,14.05
2022-10-20T15:06:30.921Z,14.95
2022-10-20T15:08:58.107Z,14.57
2022-10-20T15:11:26.524Z,12.65
2022-10-20T15:13:54.608Z,14.48
2022-10-20T15:16:40.242Z,11.18
2022-10-20T15:19:26.296Z,13.68
2022-10-20T15:21:58.195Z,13.45
2022-10-20T15:24:25.347Z,13.07
2022-10-20T15:26:52.718Z,14.50
2022-10-20T15:29:19.838Z,15.43
2022-10-20T15:31:46.910Z,11.85
2022-10-20T15:34:14.096Z,13.63
2022-10-20T15:36:42.355Z,11.25
2022-10-20T15:39:09.795Z,14.35
2022-10-20T15:41:37.140Z,15.77
2022-10-20T15:44:10.389Z,14.23
2022-10-20T15:46:37.462Z,13.27
2022-10-20T15:49:04.582Z,14.55
2022-10-20T15:51:32.416Z,11.18
2022-10-20T15:53:59.657Z,14.35
2022-10-20T15:56:26.790Z,16.10
2022-10-20T15:58:54.060Z,15.02
2022-10-20T16:01:21.914Z,13.93
2022-10-20T16:03:49.126Z,15.40
2022-10-20T16:06:17.316Z,16.00
2022-10-20T16:08:45.716Z,18.70
2022-10-20T16:11:13.390Z,18.95
2022-10-20T16:13:40.516Z,17.65
2022-10-20T16:16:09.150Z,14.88
2022-10-20T16:18:36.243Z,19.98
2022-10-20T16:21:04.705Z,16.60
2022-10-20T16:23:32.327Z,18.00
2022-10-20T16:25:59.381Z,19.08
2022-10-20T16:28:26.493Z,29.08
2022-10-20T16:31:01.739Z,20.58
2022-10-20T16:33:28.869Z,22.48
2022-10-20T16:35:57.064Z,30.50
2022-10-20T16:38:24.260Z,21.23
2022-10-20T16:40:58.608Z,20.27
2022-10-20T16:43:25.667Z,19.75
2022-10-20T16:45:52.793Z,16.52
2022-10-20T16:48:19.880Z,17.60
2022-10-20T16:50:46.995Z,16.85
2022-10-20T16:53:14.286Z,20.67
2022-10-20T16:55:41.690Z,17.45
2022-10-20T16:58:08.940Z,18.88
2022-10-20T17:00:36.063Z,18.25
2022-10-20T17:03:03.154Z,18.52
2022-10-20T17:05:30.253Z,15.73
2022-10-20T17:07:57.426Z,18.58
2022-10-20T17:10:24.501Z,22.38
2022-10-20T17:12:51.724Z,24.13
2022-10-20T17:15:18.858Z,23.15
2022-10-20T17:17:45.985Z,18.85
2022-10-20T17:20:13.102Z,22.33
2022-10-20T17:22:40.223Z,20.85
2022-10-20T17:25:07.655Z,22.02
2022-10-20T17:27:34.793Z,22.88
2022-10-20T17:30:01.937Z,28.70
2022-10-20T17:32:29.056Z,27.45
2022-10-20T17:34:56.139Z,21.80
2022-10-20T17:37:23.214Z,22.50
2022-10-20T17:39:50.348Z,27.02
2022-10-20T17:42:17.438Z,28.58
2022-10-20T17:44:44.602Z,29.10
2022-10-20T17:47:11.696Z,29.92
2022-10-20T17:49:38.744Z,27.48
2022-10-20T17:52:05.949Z,23.13
2022-10-20T17:54:33.026Z,22.83
2022-10-20T17:57:00.107Z,27.05
2022-10-20T17:59:27.290Z,25.63
2022-10-20T18:01:55.808Z,28.45
2022-10-20T18:04:23.062Z,25.45
2022-10-20T18:06:50.224Z,32.88
2022-10-20T18:09:18.446Z,32.75
2022-10-20T18:11:50.065Z,29.08
2022-10-20T18:14:17.212Z,28.52
2022-10-20T18:16:44.406Z,21.67
2022-10-20T18:19:16.423Z,22.02
2022-10-20T18:21:43.560Z,28.75
2022-10-20T18:24:13.195Z,27.42
2022-10-20T18:26:40.335Z,24.50
2022-10-20T18:29:08.196Z,29.17
2022-10-20T18:31:36.235Z,24.50
2022-10-20T18:34:06.935Z,29.05
2022-10-20T18:36:36.233Z,28.52
2022-10-20T18:39:05.740Z,27.45
2022-10-20T18:41:37.304Z,30.33
2022-10-20T18:44:05.747Z,27.80
2022-10-20T18:46:33.541Z,23.67
2022-10-20T18:49:03.354Z,24.17
2022-10-20T18:51:31.443Z,26.60
2022-10-20T18:53:59.678Z,32.38
2022-10-20T18:56:28.307Z,27.25
2022-10-20T18:58:56.763Z,25.33
2022-10-20T19:01:24.883Z,23.85
2022-10-20T19:03:53.042Z,27.25
2022-10-20T19:06:24.354Z,27.05
2022-10-20T19:08:58.945Z,27.05
2022-10-20T19:11:27.592Z,27.63
2022-10-20T19:13:55.118Z,29.63
2022-10-20T19:16:23.887Z,29.67
2022-10-20T19:18:51.820Z,25.58
2022-10-20T19:23:49.952Z,30.00
2022-10-20T19:26:21.653Z,28.63
2022-10-20T19:28:52.717Z,29.33
2022-10-20T19:31:27.850Z,30.05
2022-10-20T19:33:57.681Z,28.33
2022-10-20T19:36:25.502Z,26.70
2022-10-20T19:38:52.796Z,33.85
2022-10-20T19:41:19.951Z,36.35
2022-10-20T19:43:47.090Z,37.90
2022-10-20T19:46:15.685Z,28.80
2022-10-20T19:48:43.148Z,37.78
2022-10-20T19:51:10.224Z,35.80
2022-10-20T19:53:38.260Z,36.63
2022-10-20T19:56:06.420Z,32.42
2022-10-20T19:58:35.200Z,33.42
2022-10-20T20:01:02.528Z,33.55
2022-10-20T20:03:29.638Z,44.40
2022-10-20T20:06:01.022Z,34.15
2022-10-20T20:08:28.569Z,29.58
2022-10-20T20:10:56.271Z,31.70
2022-10-20T20:13:24.234Z,28.27
2022-10-20T20:15:51.429Z,27.77
2022-10-20T20:18:19.133Z,35.65
2022-10-20T20:20:47.927Z,32.17
2022-10-20T20:23:15.711Z,33.90
2022-10-20T20:25:44.167Z,28.67
2022-10-20T20:28:11.587Z,28.80
2022-10-20T20:30:38.956Z,29.08
2022-10-20T20:33:06.102Z,29.38
2022-10-20T20:35:33.183Z,36.78
2022-10-20T20:38:00.381Z,30.35
2022-10-20T20:40:27.456Z,32.35
2022-10-20T20:42:54.518Z,26.38
2022-10-20T20:45:21.698Z,28.80
2022-10-20T20:47:48.808Z,25.52
2022-10-20T20:50:15.989Z,27.42
2022-10-20T20:52:43.125Z,27.60
2022-10-20T20:55:10.222Z,26.73
2022-10-20T20:57:37.594Z,24.10
2022-10-20T21:00:05.178Z,28.08
2022-10-20T21:02:32.303Z,26.85
2022-10-20T21:04:59.450Z,27.38
2022-10-20T21:07:26.569Z,27.50
2022-10-20T21:09:53.638Z,26.55
2022-10-20T21:12:20.745Z,27.90
2022-10-20T21:14:48.676Z,21.70
2022-10-20T21:17:15.800Z,25.80
2022-10-20T21:19:42.849Z,24.20
2022-10-20T21:22:09.989Z,24.85
2022-10-20T21:24:37.039Z,26.55
2022-10-20T21:27:04.234Z,23.17
2022-10-20T21:29:31.483Z,24.27
2022-10-20T21:31:58.635Z,25.33
2022-10-20T21:34:26.210Z,25.67
2022-10-20T21:36:53.340Z,28.15
2022-10-20T21:39:20.478Z,24.73
2022-10-20T21:41:49.647Z,28.13
2022-10-20T21:44:16.823Z,28.02
2022-10-20T21:46:47.407Z,26.52
2022-10-20T21:49:16.327Z,23.25
2022-10-20T21:51:45.308Z,28.52
2022-10-20T21:54:17.463Z,24.85
2022-10-20T21:56:46.762Z,32.75
2022-10-20T21:59:24.115Z,30.60
2022-10-20T22:01:51.923Z,30.13
2022-10-20T22:04:19.967Z,27.75
2022-10-20T22:06:47.228Z,28.40
2022-10-20T22:09:14.921Z,30.73
2022-10-20T22:11:43.509Z,28.65
2022-10-20T22:14:10.949Z,27.05
2022-10-20T22:16:39.572Z,23.85
2022-10-20T22:19:13.934Z,25.08
2022-10-20T22:21:42.343Z,30.63
2022-10-20T22:24:09.444Z,28.35
2022-10-20T22:26:36.665Z,28.83
2022-10-20T22:29:04.626Z,26.50
2022-10-20T22:31:31.683Z,26.42
2022-10-20T22:33:59.459Z,27.73
2022-10-20T22:36:27.291Z,29.70
2022-10-20T22:38:54.441Z,23.52
2022-10-20T22:41:21.794Z,23.15
2022-10-20T22:43:48.887Z,26.88
2022-10-20T22:46:16.291Z,22.95
2022-10-20T22:48:44.039Z,22.88
2022-10-20T22:51:11.326Z,23.55
2022-10-20T22:53:38.888Z,20.50
2022-10-20T22:56:06.963Z,26.98
2022-10-20T22:58:34.182Z,29.65
2022-10-20T23:01:01.359Z,29.02
2022-10-20T23:03:28.447Z,24.50
2022-10-20T23:05:55.496Z,22.20
2022-10-20T23:08:22.609Z,22.25
2022-10-20T23:10:59.371Z,21.15
2022-10-20T23:13:26.429Z,20.35
2022-10-20T23:15:53.719Z,22.27
2022-10-20T23:18:20.901Z,22.25
2022-10-20T23:20:48.018Z,20.15
2022-10-20T23:23:15.242Z,24.58
2022-10-20T23:25:43.028Z,20.70
2022-10-20T23:28:10.528Z,21.50
2022-10-20T23:30:37.804Z,21.25
2022-10-20T23:33:04.907Z,19.35
2022-10-20T23:35:32.102Z,19.27
2022-10-20T23:37:59.206Z,19.73
2022-10-20T23:40:26.315Z,21.73
2022-10-20T23:42:53.527Z,20.95
2022-10-20T23:45:20.586Z,23.55
2022-10-20T23:47:47.920Z,20.65
2022-10-20T23:50:16.549Z,22.08
2022-10-20T23:52:44.183Z,19.50
2022-10-20T23:55:13.296Z,21.33
2022-10-20T23:57:42.599Z,21.23
